sensor_id;sensor_type;location;lat;lon;timestamp;P1;durP1;ratioP1;P2;durP2;ratioP2
27580;SDS011;63557;52.302;7.964;2023-07-09T00:00:28;12.83;;;10.00;;
27580;SDS011;63557;52.302;7.964;2023-07-09T00:05:28;13.68;;;10.40;;
27580;SDS011;63557;52.302;7.964;2023-07-09T00:10:29;13.33;;;9.43;;
27580;SDS011;63557;52.302;7.964;2023-07-09T00:15:29;13.45;;;9.70;;
27580;SDS011;63557;52.302;7.964;2023-07-09T00:20:30;13.70;;;9.88;;
27580;SDS011;63557;52.302;7.964;2023-07-09T00:25:30;12.47;;;10.07;;
27580;SDS011;63557;52.302;7.964;2023-07-09T00:30:31;11.18;;;9.63;;
27580;SDS011;63557;52.302;7.964;2023-07-09T00:35:31;11.03;;;9.77;;
27580;SDS011;63557;52.302;7.964;2023-07-09T00:40:31;12.37;;;10.30;;
27580;SDS011;63557;52.302;7.964;2023-07-09T00:45:33;13.30;;;9.77;;
27580;SDS011;63557;52.302;7.964;2023-07-09T00:50:37;20.08;;;9.85;;
27580;SDS011;63557;52.302;7.964;2023-07-09T00:55:48;12.88;;;9.73;;
27580;SDS011;63557;52.302;7.964;2023-07-09T01:00:50;11.73;;;9.73;;
27580;SDS011;63557;52.302;7.964;2023-07-09T01:05:53;12.90;;;9.73;;
27580;SDS011;63557;52.302;7.964;2023-07-09T01:10:55;11.18;;;10.02;;
27580;SDS011;63557;52.302;7.964;2023-07-09T01:15:58;13.15;;;10.43;;
27580;SDS011;63557;52.302;7.964;2023-07-09T01:21:02;15.25;;;9.65;;
27580;SDS011;63557;52.302;7.964;2023-07-09T01:26:03;17.08;;;9.85;;
27580;SDS011;63557;52.302;7.964;2023-07-09T01:31:04;11.13;;;9.40;;
27580;SDS011;63557;52.302;7.964;2023-07-09T01:36:05;12.60;;;10.80;;
27580;SDS011;63557;52.302;7.964;2023-07-09T01:41:07;13.25;;;10.82;;
27580;SDS011;63557;52.302;7.964;2023-07-09T01:46:08;13.10;;;10.23;;
27580;SDS011;63557;52.302;7.964;2023-07-09T01:51:09;13.88;;;10.48;;
27580;SDS011;63557;52.302;7.964;2023-07-09T01:56:10;17.58;;;11.55;;
27580;SDS011;63557;52.302;7.964;2023-07-09T02:01:11;13.88;;;10.48;;
27580;SDS011;63557;52.302;7.964;2023-07-09T02:06:11;13.65;;;9.90;;
27580;SDS011;63557;52.302;7.964;2023-07-09T02:11:12;16.05;;;10.85;;
27580;SDS011;63557;52.302;7.964;2023-07-09T02:16:12;13.13;;;9.93;;
27580;SDS011;63557;52.302;7.964;2023-07-09T02:21:13;14.30;;;10.77;;
27580;SDS011;63557;52.302;7.964;2023-07-09T02:26:13;13.63;;;10.37;;
27580;SDS011;63557;52.302;7.964;2023-07-09T02:31:14;12.17;;;10.23;;
27580;SDS011;63557;52.302;7.964;2023-07-09T02:36:15;15.90;;;10.32;;
27580;SDS011;63557;52.302;7.964;2023-07-09T02:41:16;13.68;;;11.02;;
27580;SDS011;63557;52.302;7.964;2023-07-09T02:46:16;12.65;;;10.70;;
27580;SDS011;63557;52.302;7.964;2023-07-09T02:51:17;14.83;;;11.50;;
27580;SDS011;63557;52.302;7.964;2023-07-09T02:56:17;11.77;;;10.52;;
27580;SDS011;63557;52.302;7.964;2023-07-09T03:01:18;13.17;;;9.90;;
27580;SDS011;63557;52.302;7.964;2023-07-09T03:06:21;11.80;;;10.57;;
27580;SDS011;63557;52.302;7.964;2023-07-09T03:11:21;14.73;;;11.32;;
27580;SDS011;63557;52.302;7.964;2023-07-09T03:16:21;14.17;;;11.10;;
27580;SDS011;63557;52.302;7.964;2023-07-09T03:21:23;15.27;;;10.43;;
27580;SDS011;63557;52.302;7.964;2023-07-09T03:26:23;17.42;;;10.77;;
27580;SDS011;63557;52.302;7.964;2023-07-09T03:31:25;13.20;;;10.70;;
27580;SDS011;63557;52.302;7.964;2023-07-09T03:36:26;12.07;;;10.85;;
27580;SDS011;63557;52.302;7.964;2023-07-09T03:41:26;11.93;;;10.70;;
27580;SDS011;63557;52.302;7.964;2023-07-09T03:46:27;14.07;;;11.57;;
27580;SDS011;63557;52.302;7.964;2023-07-09T03:51:27;12.40;;;11.15;;
27580;SDS011;63557;52.302;7.964;2023-07-09T03:56:28;15.45;;;11.13;;
27580;SDS011;63557;52.302;7.964;2023-07-09T04:01:28;12.83;;;11.17;;
27580;SDS011;63557;52.302;7.964;2023-07-09T04:06:28;14.63;;;11.13;;
27580;SDS011;63557;52.302;7.964;2023-07-09T04:11:29;12.40;;;10.85;;
27580;SDS011;63557;52.302;7.964;2023-07-09T04:16:29;16.47;;;12.23;;
27580;SDS011;63557;52.302;7.964;2023-07-09T04:21:29;13.77;;;11.63;;
27580;SDS011;63557;52.302;7.964;2023-07-09T04:26:30;15.73;;;10.27;;
27580;SDS011;63557;52.302;7.964;2023-07-09T04:31:30;15.47;;;11.03;;
27580;SDS011;63557;52.302;7.964;2023-07-09T04:36:30;13.90;;;11.27;;
27580;SDS011;63557;52.302;7.964;2023-07-09T04:41:31;14.80;;;10.45;;
27580;SDS011;63557;52.302;7.964;2023-07-09T04:46:31;13.70;;;10.80;;
27580;SDS011;63557;52.302;7.964;2023-07-09T04:51:32;15.23;;;11.70;;
27580;SDS011;63557;52.302;7.964;2023-07-09T04:56:33;14.57;;;11.82;;
27580;SDS011;63557;52.302;7.964;2023-07-09T05:01:33;15.75;;;10.52;;
27580;SDS011;63557;52.302;7.964;2023-07-09T05:06:34;14.57;;;10.77;;
27580;SDS011;63557;52.302;7.964;2023-07-09T05:11:35;13.63;;;10.77;;
27580;SDS011;63557;52.302;7.964;2023-07-09T05:16:36;14.18;;;11.00;;
27580;SDS011;63557;52.302;7.964;2023-07-09T05:21:36;14.80;;;10.97;;
27580;SDS011;63557;52.302;7.964;2023-07-09T05:26:36;15.13;;;10.67;;
27580;SDS011;63557;52.302;7.964;2023-07-09T05:31:37;14.32;;;10.23;;
27580;SDS011;63557;52.302;7.964;2023-07-09T05:36:37;12.07;;;10.68;;
27580;SDS011;63557;52.302;7.964;2023-07-09T05:41:38;12.80;;;10.37;;
27580;SDS011;63557;52.302;7.964;2023-07-09T05:46:38;12.30;;;10.90;;
27580;SDS011;63557;52.302;7.964;2023-07-09T05:51:38;14.83;;;11.13;;
27580;SDS011;63557;52.302;7.964;2023-07-09T05:56:39;12.50;;;10.30;;
27580;SDS011;63557;52.302;7.964;2023-07-09T06:01:39;14.40;;;10.07;;
27580;SDS011;63557;52.302;7.964;2023-07-09T06:06:40;13.00;;;11.20;;
27580;SDS011;63557;52.302;7.964;2023-07-09T06:11:41;15.50;;;9.35;;
27580;SDS011;63557;52.302;7.964;2023-07-09T06:16:42;18.83;;;10.07;;
27580;SDS011;63557;52.302;7.964;2023-07-09T06:21:43;10.85;;;9.75;;
27580;SDS011;63557;52.302;7.964;2023-07-09T06:26:43;12.27;;;10.20;;
27580;SDS011;63557;52.302;7.964;2023-07-09T06:31:44;14.07;;;9.53;;
27580;SDS011;63557;52.302;7.964;2023-07-09T06:36:44;13.00;;;10.37;;
27580;SDS011;63557;52.302;7.964;2023-07-09T06:41:44;13.27;;;9.80;;
27580;SDS011;63557;52.302;7.964;2023-07-09T06:47:05;10.48;;;8.60;;
27580;SDS011;63557;52.302;7.964;2023-07-09T06:52:05;11.23;;;8.93;;
27580;SDS011;63557;52.302;7.964;2023-07-09T06:57:06;11.45;;;9.02;;
27580;SDS011;63557;52.302;7.964;2023-07-09T07:02:07;12.30;;;9.37;;
27580;SDS011;63557;52.302;7.964;2023-07-09T07:07:08;10.20;;;8.18;;
27580;SDS011;63557;52.302;7.964;2023-07-09T07:12:09;11.85;;;8.43;;
27580;SDS011;63557;52.302;7.964;2023-07-09T07:17:10;10.70;;;8.88;;
27580;SDS011;63557;52.302;7.964;2023-07-09T07:22:10;12.83;;;8.60;;
27580;SDS011;63557;52.302;7.964;2023-07-09T07:27:11;10.35;;;8.18;;
27580;SDS011;63557;52.302;7.964;2023-07-09T07:32:11;11.70;;;8.67;;
27580;SDS011;63557;52.302;7.964;2023-07-09T07:37:11;10.33;;;8.83;;
27580;SDS011;63557;52.302;7.964;2023-07-09T07:42:12;15.23;;;8.20;;
27580;SDS011;63557;52.302;7.964;2023-07-09T07:47:12;9.77;;;8.20;;
27580;SDS011;63557;52.302;7.964;2023-07-09T07:52:13;10.63;;;8.18;;
27580;SDS011;63557;52.302;7.964;2023-07-09T07:57:13;8.88;;;7.97;;
27580;SDS011;63557;52.302;7.964;2023-07-09T08:02:14;13.40;;;8.18;;
27580;SDS011;63557;52.302;7.964;2023-07-09T08:07:14;11.57;;;8.20;;
27580;SDS011;63557;52.302;7.964;2023-07-09T08:12:15;13.03;;;8.03;;
27580;SDS011;63557;52.302;7.964;2023-07-09T08:17:15;11.57;;;8.60;;
27580;SDS011;63557;52.302;7.964;2023-07-09T08:22:16;8.43;;;7.50;;
27580;SDS011;63557;52.302;7.964;2023-07-09T08:27:17;9.68;;;8.05;;
27580;SDS011;63557;52.302;7.964;2023-07-09T08:32:17;11.77;;;8.82;;
27580;SDS011;63557;52.302;7.964;2023-07-09T08:37:17;11.30;;;7.80;;
27580;SDS011;63557;52.302;7.964;2023-07-09T08:42:21;7.83;;;7.03;;
27580;SDS011;63557;52.302;7.964;2023-07-09T08:57:26;10.23;;;7.50;;
27580;SDS011;63557;52.302;7.964;2023-07-09T09:02:33;8.75;;;6.90;;
27580;SDS011;63557;52.302;7.964;2023-07-09T09:07:38;12.45;;;7.95;;
27580;SDS011;63557;52.302;7.964;2023-07-09T09:12:41;12.53;;;8.20;;
27580;SDS011;63557;52.302;7.964;2023-07-09T09:17:43;8.10;;;7.30;;
27580;SDS011;63557;52.302;7.964;2023-07-09T09:22:49;9.05;;;6.90;;
27580;SDS011;63557;52.302;7.964;2023-07-09T09:27:50;7.97;;;7.03;;
27580;SDS011;63557;52.302;7.964;2023-07-09T09:32:58;9.73;;;7.27;;
27580;SDS011;63557;52.302;7.964;2023-07-09T09:37:58;9.30;;;6.72;;
27580;SDS011;63557;52.302;7.964;2023-07-09T09:43:01;9.00;;;7.05;;
27580;SDS011;63557;52.302;7.964;2023-07-09T09:48:03;10.40;;;7.30;;
27580;SDS011;63557;52.302;7.964;2023-07-09T09:53:11;8.25;;;7.15;;
27580;SDS011;63557;52.302;7.964;2023-07-09T09:58:15;7.60;;;6.80;;
27580;SDS011;63557;52.302;7.964;2023-07-09T10:03:16;10.43;;;7.38;;
27580;SDS011;63557;52.302;7.964;2023-07-09T10:18:40;7.88;;;6.88;;
27580;SDS011;63557;52.302;7.964;2023-07-09T10:39:29;13.77;;;7.38;;
27580;SDS011;63557;52.302;7.964;2023-07-09T10:49:33;8.33;;;6.70;;
27580;SDS011;63557;52.302;7.964;2023-07-09T10:54:42;8.13;;;6.88;;
27580;SDS011;63557;52.302;7.964;2023-07-09T10:59:46;10.45;;;7.32;;
27580;SDS011;63557;52.302;7.964;2023-07-09T11:05:09;8.95;;;7.50;;
27580;SDS011;63557;52.302;7.964;2023-07-09T11:15:16;10.70;;;6.53;;
27580;SDS011;63557;52.302;7.964;2023-07-09T11:20:24;11.77;;;6.15;;
27580;SDS011;63557;52.302;7.964;2023-07-09T11:25:30;8.35;;;6.30;;
27580;SDS011;63557;52.302;7.964;2023-07-09T11:30:32;7.82;;;6.40;;
27580;SDS011;63557;52.302;7.964;2023-07-09T11:36:33;6.95;;;6.25;;
27580;SDS011;63557;52.302;7.964;2023-07-09T11:41:02;9.00;;;6.25;;
27580;SDS011;63557;52.302;7.964;2023-07-09T11:46:13;6.53;;;5.87;;
27580;SDS011;63557;52.302;7.964;2023-07-09T11:51:16;9.43;;;6.30;;
27580;SDS011;63557;52.302;7.964;2023-07-09T11:56:18;6.15;;;5.60;;
27580;SDS011;63557;52.302;7.964;2023-07-09T12:01:19;7.03;;;5.57;;
27580;SDS011;63557;52.302;7.964;2023-07-09T12:06:28;7.53;;;6.00;;
27580;SDS011;63557;52.302;7.964;2023-07-09T12:11:29;6.97;;;5.70;;
27580;SDS011;63557;52.302;7.964;2023-07-09T12:16:31;7.78;;;5.40;;
27580;SDS011;63557;52.302;7.964;2023-07-09T12:21:34;6.10;;;5.50;;
27580;SDS011;63557;52.302;7.964;2023-07-09T12:26:36;8.85;;;5.60;;
27580;SDS011;63557;52.302;7.964;2023-07-09T12:31:36;6.33;;;5.73;;
27580;SDS011;63557;52.302;7.964;2023-07-09T12:36:37;7.00;;;5.53;;
27580;SDS011;63557;52.302;7.964;2023-07-09T12:41:39;10.38;;;5.50;;
27580;SDS011;63557;52.302;7.964;2023-07-09T12:46:40;7.70;;;5.82;;
27580;SDS011;63557;52.302;7.964;2023-07-09T12:51:40;9.57;;;5.77;;
27580;SDS011;63557;52.302;7.964;2023-07-09T12:56:41;7.13;;;5.50;;
27580;SDS011;63557;52.302;7.964;2023-07-09T13:01:41;5.68;;;5.18;;
27580;SDS011;63557;52.302;7.964;2023-07-09T13:06:42;8.48;;;5.32;;
27580;SDS011;63557;52.302;7.964;2023-07-09T13:11:44;8.82;;;5.60;;
27580;SDS011;63557;52.302;7.964;2023-07-09T13:16:44;6.25;;;5.32;;
27580;SDS011;63557;52.302;7.964;2023-07-09T13:21:45;9.27;;;6.20;;
27580;SDS011;63557;52.302;7.964;2023-07-09T13:26:46;9.55;;;5.43;;
27580;SDS011;63557;52.302;7.964;2023-07-09T13:31:47;9.27;;;5.97;;
27580;SDS011;63557;52.302;7.964;2023-07-09T13:36:48;10.18;;;6.50;;
27580;SDS011;63557;52.302;7.964;2023-07-09T13:41:49;8.95;;;6.55;;
27580;SDS011;63557;52.302;7.964;2023-07-09T13:46:50;8.50;;;6.70;;
27580;SDS011;63557;52.302;7.964;2023-07-09T13:51:52;10.53;;;6.40;;
27580;SDS011;63557;52.302;7.964;2023-07-09T13:56:53;7.25;;;5.90;;
27580;SDS011;63557;52.302;7.964;2023-07-09T14:01:54;10.63;;;6.57;;
27580;SDS011;63557;52.302;7.964;2023-07-09T14:06:57;8.82;;;6.15;;
27580;SDS011;63557;52.302;7.964;2023-07-09T14:11:57;11.67;;;6.63;;
27580;SDS011;63557;52.302;7.964;2023-07-09T14:16:58;11.00;;;6.63;;
27580;SDS011;63557;52.302;7.964;2023-07-09T14:21:59;9.80;;;6.07;;
27580;SDS011;63557;52.302;7.964;2023-07-09T14:26:59;8.27;;;6.40;;
27580;SDS011;63557;52.302;7.964;2023-07-09T14:31:59;9.70;;;6.53;;
27580;SDS011;63557;52.302;7.964;2023-07-09T14:37:00;10.30;;;6.53;;
27580;SDS011;63557;52.302;7.964;2023-07-09T14:42:01;8.23;;;6.13;;
27580;SDS011;63557;52.302;7.964;2023-07-09T14:47:01;7.63;;;6.63;;
27580;SDS011;63557;52.302;7.964;2023-07-09T14:52:02;10.00;;;6.97;;
27580;SDS011;63557;52.302;7.964;2023-07-09T14:57:03;10.70;;;7.43;;
27580;SDS011;63557;52.302;7.964;2023-07-09T15:02:30;10.18;;;7.07;;
27580;SDS011;63557;52.302;7.964;2023-07-09T15:07:31;9.50;;;7.30;;
27580;SDS011;63557;52.302;7.964;2023-07-09T15:12:32;7.93;;;7.00;;
27580;SDS011;63557;52.302;7.964;2023-07-09T15:17:33;9.57;;;6.78;;
27580;SDS011;63557;52.302;7.964;2023-07-09T15:22:33;8.90;;;6.50;;
27580;SDS011;63557;52.302;7.964;2023-07-09T15:27:34;11.98;;;7.05;;
27580;SDS011;63557;52.302;7.964;2023-07-09T15:32:35;9.80;;;7.00;;
27580;SDS011;63557;52.302;7.964;2023-07-09T15:37:35;12.77;;;7.60;;
27580;SDS011;63557;52.302;7.964;2023-07-09T15:42:35;10.90;;;7.80;;
27580;SDS011;63557;52.302;7.964;2023-07-09T15:47:36;10.63;;;8.17;;
27580;SDS011;63557;52.302;7.964;2023-07-09T15:52:36;16.00;;;7.87;;
27580;SDS011;63557;52.302;7.964;2023-07-09T15:57:36;15.10;;;8.03;;
27580;SDS011;63557;52.302;7.964;2023-07-09T16:02:37;13.02;;;8.00;;
27580;SDS011;63557;52.302;7.964;2023-07-09T16:07:37;12.00;;;8.23;;
27580;SDS011;63557;52.302;7.964;2023-07-09T16:12:38;12.50;;;7.80;;
27580;SDS011;63557;52.302;7.964;2023-07-09T16:17:38;11.82;;;8.10;;
27580;SDS011;63557;52.302;7.964;2023-07-09T16:22:39;11.70;;;8.07;;
27580;SDS011;63557;52.302;7.964;2023-07-09T16:27:41;22.10;;;8.55;;
27580;SDS011;63557;52.302;7.964;2023-07-09T16:32:42;12.43;;;8.90;;
27580;SDS011;63557;52.302;7.964;2023-07-09T16:37:43;11.75;;;8.80;;
27580;SDS011;63557;52.302;7.964;2023-07-09T16:42:44;13.65;;;6.95;;
27580;SDS011;63557;52.302;7.964;2023-07-09T16:47:45;13.50;;;5.85;;
27580;SDS011;63557;52.302;7.964;2023-07-09T16:52:46;10.50;;;6.00;;
27580;SDS011;63557;52.302;7.964;2023-07-09T16:57:51;13.05;;;6.05;;
27580;SDS011;63557;52.302;7.964;2023-07-09T17:02:52;13.50;;;6.70;;
27580;SDS011;63557;52.302;7.964;2023-07-09T17:07:52;9.80;;;6.20;;
27580;SDS011;63557;52.302;7.964;2023-07-09T17:12:56;9.95;;;6.68;;
27580;SDS011;63557;52.302;7.964;2023-07-09T17:17:57;10.10;;;5.87;;
27580;SDS011;63557;52.302;7.964;2023-07-09T17:22:58;7.50;;;5.18;;
27580;SDS011;63557;52.302;7.964;2023-07-09T17:28:00;9.43;;;5.25;;
27580;SDS011;63557;52.302;7.964;2023-07-09T17:33:01;6.47;;;4.57;;
27580;SDS011;63557;52.302;7.964;2023-07-09T17:38:01;8.73;;;4.87;;
27580;SDS011;63557;52.302;7.964;2023-07-09T17:43:16;6.93;;;5.25;;
27580;SDS011;63557;52.302;7.964;2023-07-09T17:53:18;9.00;;;5.30;;
27580;SDS011;63557;52.302;7.964;2023-07-09T17:58:22;11.15;;;5.78;;
27580;SDS011;63557;52.302;7.964;2023-07-09T18:03:24;9.40;;;5.93;;
27580;SDS011;63557;52.302;7.964;2023-07-09T18:08:24;16.60;;;8.33;;
27580;SDS011;63557;52.302;7.964;2023-07-09T18:13:25;13.60;;;7.53;;
27580;SDS011;63557;52.302;7.964;2023-07-09T18:18:27;12.77;;;7.57;;
27580;SDS011;63557;52.302;7.964;2023-07-09T18:23:27;11.20;;;6.23;;
27580;SDS011;63557;52.302;7.964;2023-07-09T18:28:28;13.27;;;6.70;;
27580;SDS011;63557;52.302;7.964;2023-07-09T18:33:30;10.07;;;6.47;;
27580;SDS011;63557;52.302;7.964;2023-07-09T18:38:30;11.85;;;6.82;;
27580;SDS011;63557;52.302;7.964;2023-07-09T18:43:31;11.57;;;7.50;;
27580;SDS011;63557;52.302;7.964;2023-07-09T18:48:31;13.77;;;8.63;;
27580;SDS011;63557;52.302;7.964;2023-07-09T18:53:32;10.40;;;7.10;;
27580;SDS011;63557;52.302;7.964;2023-07-09T18:58:32;8.40;;;6.68;;
27580;SDS011;63557;52.302;7.964;2023-07-09T19:03:35;10.20;;;7.05;;
27580;SDS011;63557;52.302;7.964;2023-07-09T19:08:36;8.82;;;6.57;;
27580;SDS011;63557;52.302;7.964;2023-07-09T19:13:36;12.47;;;7.27;;
27580;SDS011;63557;52.302;7.964;2023-07-09T19:18:37;15.13;;;7.67;;
27580;SDS011;63557;52.302;7.964;2023-07-09T19:23:37;10.23;;;6.20;;
27580;SDS011;63557;52.302;7.964;2023-07-09T19:28:37;9.63;;;7.67;;
27580;SDS011;63557;52.302;7.964;2023-07-09T19:33:38;10.30;;;7.47;;
27580;SDS011;63557;52.302;7.964;2023-07-09T19:38:40;13.93;;;8.80;;
27580;SDS011;63557;52.302;7.964;2023-07-09T19:43:40;8.17;;;6.60;;
27580;SDS011;63557;52.302;7.964;2023-07-09T19:48:40;10.10;;;7.80;;
27580;SDS011;63557;52.302;7.964;2023-07-09T19:53:41;11.13;;;8.33;;
27580;SDS011;63557;52.302;7.964;2023-07-09T19:58:41;14.03;;;7.77;;
27580;SDS011;63557;52.302;7.964;2023-07-09T20:03:42;10.90;;;7.53;;
27580;SDS011;63557;52.302;7.964;2023-07-09T20:08:42;11.73;;;7.77;;
27580;SDS011;63557;52.302;7.964;2023-07-09T20:13:42;14.67;;;8.37;;
27580;SDS011;63557;52.302;7.964;2023-07-09T20:18:43;11.57;;;8.50;;
27580;SDS011;63557;52.302;7.964;2023-07-09T20:23:43;13.77;;;9.23;;
27580;SDS011;63557;52.302;7.964;2023-07-09T20:28:43;10.30;;;8.57;;
27580;SDS011;63557;52.302;7.964;2023-07-09T20:33:44;11.95;;;8.35;;
27580;SDS011;63557;52.302;7.964;2023-07-09T20:38:44;15.30;;;9.40;;
27580;SDS011;63557;52.302;7.964;2023-07-09T20:43:45;13.27;;;8.67;;
27580;SDS011;63557;52.302;7.964;2023-07-09T20:48:45;11.80;;;9.03;;
27580;SDS011;63557;52.302;7.964;2023-07-09T20:53:46;15.73;;;8.77;;
27580;SDS011;63557;52.302;7.964;2023-07-09T20:58:47;13.03;;;9.10;;
27580;SDS011;63557;52.302;7.964;2023-07-09T21:03:48;11.48;;;9.80;;
27580;SDS011;63557;52.302;7.964;2023-07-09T21:08:48;13.53;;;9.77;;
27580;SDS011;63557;52.302;7.964;2023-07-09T21:13:48;13.50;;;9.57;;
27580;SDS011;63557;52.302;7.964;2023-07-09T21:18:49;14.80;;;11.33;;
27580;SDS011;63557;52.302;7.964;2023-07-09T21:23:49;12.87;;;10.50;;
27580;SDS011;63557;52.302;7.964;2023-07-09T21:28:49;18.27;;;12.73;;
27580;SDS011;63557;52.302;7.964;2023-07-09T21:33:50;15.20;;;10.93;;
27580;SDS011;63557;52.302;7.964;2023-07-09T21:38:50;15.10;;;11.90;;
27580;SDS011;63557;52.302;7.964;2023-07-09T21:43:50;19.53;;;12.27;;
27580;SDS011;63557;52.302;7.964;2023-07-09T21:48:51;19.90;;;12.03;;
27580;SDS011;63557;52.302;7.964;2023-07-09T21:53:51;11.93;;;10.70;;
27580;SDS011;63557;52.302;7.964;2023-07-09T21:58:52;14.60;;;10.13;;
27580;SDS011;63557;52.302;7.964;2023-07-09T22:03:53;11.85;;;10.65;;
27580;SDS011;63557;52.302;7.964;2023-07-09T22:08:53;14.93;;;10.90;;
27580;SDS011;63557;52.302;7.964;2023-07-09T22:13:54;12.80;;;10.27;;
27580;SDS011;63557;52.302;7.964;2023-07-09T22:18:57;17.33;;;11.95;;
27580;SDS011;63557;52.302;7.964;2023-07-09T22:23:58;16.77;;;11.77;;
27580;SDS011;63557;52.302;7.964;2023-07-09T22:29:00;19.40;;;12.30;;
27580;SDS011;63557;52.302;7.964;2023-07-09T22:34:01;16.13;;;12.10;;
27580;SDS011;63557;52.302;7.964;2023-07-09T22:39:02;12.65;;;11.27;;
27580;SDS011;63557;52.302;7.964;2023-07-09T22:44:02;18.27;;;11.63;;
27580;SDS011;63557;52.302;7.964;2023-07-09T22:49:03;16.55;;;10.57;;
27580;SDS011;63557;52.302;7.964;2023-07-09T22:54:04;14.13;;;11.73;;
27580;SDS011;63557;52.302;7.964;2023-07-09T22:59:06;18.63;;;12.40;;
27580;SDS011;63557;52.302;7.964;2023-07-09T23:04:13;13.10;;;10.83;;
27580;SDS011;63557;52.302;7.964;2023-07-09T23:09:14;19.40;;;11.13;;
27580;SDS011;63557;52.302;7.964;2023-07-09T23:14:18;17.27;;;11.87;;
27580;SDS011;63557;52.302;7.964;2023-07-09T23:19:20;17.60;;;11.13;;
27580;SDS011;63557;52.302;7.964;2023-07-09T23:24:23;13.07;;;11.27;;
27580;SDS011;63557;52.302;7.964;2023-07-09T23:29:23;16.30;;;11.53;;
27580;SDS011;63557;52.302;7.964;2023-07-09T23:34:23;15.07;;;10.67;;
27580;SDS011;63557;52.302;7.964;2023-07-09T23:39:24;15.83;;;11.40;;
27580;SDS011;63557;52.302;7.964;2023-07-09T23:44:28;18.83;;;12.32;;
27580;SDS011;63557;52.302;7.964;2023-07-09T23:49:30;24.65;;;12.07;;
27580;SDS011;63557;52.302;7.964;2023-07-09T23:54:30;21.17;;;12.80;;
27580;SDS011;63557;52.302;7.964;2023-07-09T23:59:31;20.13;;;15.90;;
